sensor_id;sensor_type;location;lat;lon;timestamp;P1;durP1;ratioP1;P2;durP2;ratioP2
8058;SDS011;4072;42.668;23.396;2023-09-08T00:00:03;16.77;;;9.70;;
8058;SDS011;4072;42.668;23.396;2023-09-08T00:02:34;10.57;;;9.47;;
8058;SDS011;4072;42.668;23.396;2023-09-08T00:05:03;11.83;;;9.33;;
8058;SDS011;4072;42.668;23.396;2023-09-08T00:07:32;10.37;;;9.07;;
8058;SDS011;4072;42.668;23.396;2023-09-08T00:10:00;10.40;;;9.40;;
8058;SDS011;4072;42.668;23.396;2023-09-08T00:12:28;9.87;;;8.37;;
8058;SDS011;4072;42.668;23.396;2023-09-08T00:14:57;10.17;;;9.27;;
8058;SDS011;4072;42.668;23.396;2023-09-08T00:17:25;9.20;;;8.30;;
8058;SDS011;4072;42.668;23.396;2023-09-08T00:19:56;8.50;;;7.60;;
8058;SDS011;4072;42.668;23.396;2023-09-08T00:22:25;9.03;;;7.83;;
8058;SDS011;4072;42.668;23.396;2023-09-08T00:24:53;11.23;;;8.73;;
8058;SDS011;4072;42.668;23.396;2023-09-08T00:27:21;10.63;;;7.47;;
8058;SDS011;4072;42.668;23.396;2023-09-08T00:29:50;8.73;;;7.83;;
8058;SDS011;4072;42.668;23.396;2023-09-08T00:32:18;8.40;;;6.23;;
8058;SDS011;4072;42.668;23.396;2023-09-08T00:34:46;9.83;;;7.27;;
8058;SDS011;4072;42.668;23.396;2023-09-08T00:37:16;7.83;;;7.00;;
8058;SDS011;4072;42.668;23.396;2023-09-08T00:39:45;7.87;;;7.07;;
8058;SDS011;4072;42.668;23.396;2023-09-08T00:42:13;8.53;;;6.77;;
8058;SDS011;4072;42.668;23.396;2023-09-08T00:44:41;8.57;;;7.17;;
8058;SDS011;4072;42.668;23.396;2023-09-08T00:47:09;7.43;;;6.63;;
8058;SDS011;4072;42.668;23.396;2023-09-08T00:49:38;6.80;;;6.20;;
8058;SDS011;4072;42.668;23.396;2023-09-08T00:52:07;6.87;;;6.27;;
8058;SDS011;4072;42.668;23.396;2023-09-08T00:54:37;8.67;;;6.07;;
8058;SDS011;4072;42.668;23.396;2023-09-08T00:57:05;8.13;;;6.03;;
8058;SDS011;4072;42.668;23.396;2023-09-08T00:59:34;8.20;;;6.70;;
8058;SDS011;4072;42.668;23.396;2023-09-08T01:02:03;6.80;;;5.90;;
8058;SDS011;4072;42.668;23.396;2023-09-08T01:04:31;6.67;;;6.07;;
8058;SDS011;4072;42.668;23.396;2023-09-08T01:07:02;7.57;;;5.77;;
8058;SDS011;4072;42.668;23.396;2023-09-08T01:09:30;5.97;;;5.40;;
8058;SDS011;4072;42.668;23.396;2023-09-08T01:12:00;7.80;;;5.37;;
8058;SDS011;4072;42.668;23.396;2023-09-08T01:14:35;7.50;;;5.83;;
8058;SDS011;4072;42.668;23.396;2023-09-08T01:17:03;8.33;;;6.30;;
8058;SDS011;4072;42.668;23.396;2023-09-08T01:19:31;7.23;;;5.97;;
8058;SDS011;4072;42.668;23.396;2023-09-08T01:22:21;10.57;;;6.00;;
8058;SDS011;4072;42.668;23.396;2023-09-08T01:25:11;9.57;;;6.43;;
8058;SDS011;4072;42.668;23.396;2023-09-08T01:27:43;6.63;;;5.90;;
8058;SDS011;4072;42.668;23.396;2023-09-08T01:30:15;8.30;;;5.97;;
8058;SDS011;4072;42.668;23.396;2023-09-08T01:32:44;7.13;;;5.90;;
8058;SDS011;4072;42.668;23.396;2023-09-08T01:35:13;8.10;;;6.07;;
8058;SDS011;4072;42.668;23.396;2023-09-08T01:37:44;8.80;;;5.73;;
8058;SDS011;4072;42.668;23.396;2023-09-08T01:40:15;7.10;;;5.53;;
8058;SDS011;4072;42.668;23.396;2023-09-08T01:42:44;6.63;;;5.87;;
8058;SDS011;4072;42.668;23.396;2023-09-08T01:45:13;7.37;;;5.87;;
8058;SDS011;4072;42.668;23.396;2023-09-08T01:47:41;8.27;;;6.00;;
8058;SDS011;4072;42.668;23.396;2023-09-08T01:50:09;10.00;;;6.10;;
8058;SDS011;4072;42.668;23.396;2023-09-08T01:52:38;7.70;;;5.80;;
8058;SDS011;4072;42.668;23.396;2023-09-08T01:55:07;7.13;;;6.43;;
8058;SDS011;4072;42.668;23.396;2023-09-08T01:57:39;6.50;;;5.83;;
8058;SDS011;4072;42.668;23.396;2023-09-08T02:00:08;7.47;;;5.83;;
8058;SDS011;4072;42.668;23.396;2023-09-08T02:02:37;7.37;;;5.93;;
8058;SDS011;4072;42.668;23.396;2023-09-08T02:05:06;9.17;;;6.63;;
8058;SDS011;4072;42.668;23.396;2023-09-08T02:07:34;7.63;;;6.50;;
8058;SDS011;4072;42.668;23.396;2023-09-08T02:10:03;10.40;;;6.73;;
8058;SDS011;4072;42.668;23.396;2023-09-08T02:12:31;9.60;;;7.10;;
8058;SDS011;4072;42.668;23.396;2023-09-08T02:15:02;8.27;;;7.13;;
8058;SDS011;4072;42.668;23.396;2023-09-08T02:17:31;8.63;;;6.97;;
8058;SDS011;4072;42.668;23.396;2023-09-08T02:20:00;7.47;;;6.57;;
8058;SDS011;4072;42.668;23.396;2023-09-08T02:22:30;10.30;;;7.43;;
8058;SDS011;4072;42.668;23.396;2023-09-08T02:24:58;7.50;;;6.60;;
8058;SDS011;4072;42.668;23.396;2023-09-08T02:27:26;8.57;;;6.60;;
8058;SDS011;4072;42.668;23.396;2023-09-08T02:29:55;9.83;;;7.67;;
8058;SDS011;4072;42.668;23.396;2023-09-08T02:32:26;8.83;;;6.93;;
8058;SDS011;4072;42.668;23.396;2023-09-08T02:34:55;9.90;;;7.13;;
8058;SDS011;4072;42.668;23.396;2023-09-08T02:37:23;11.40;;;6.97;;
8058;SDS011;4072;42.668;23.396;2023-09-08T02:39:51;7.63;;;6.63;;
8058;SDS011;4072;42.668;23.396;2023-09-08T02:42:19;8.10;;;7.30;;
8058;SDS011;4072;42.668;23.396;2023-09-08T02:44:47;9.47;;;7.00;;
8058;SDS011;4072;42.668;23.396;2023-09-08T02:47:16;7.80;;;7.00;;
8058;SDS011;4072;42.668;23.396;2023-09-08T02:49:46;8.77;;;7.57;;
8058;SDS011;4072;42.668;23.396;2023-09-08T02:52:14;7.53;;;6.83;;
8058;SDS011;4072;42.668;23.396;2023-09-08T02:54:47;7.63;;;6.83;;
8058;SDS011;4072;42.668;23.396;2023-09-08T02:57:15;8.07;;;7.27;;
8058;SDS011;4072;42.668;23.396;2023-09-08T02:59:43;8.47;;;7.37;;
8058;SDS011;4072;42.668;23.396;2023-09-08T03:02:17;8.73;;;7.57;;
8058;SDS011;4072;42.668;23.396;2023-09-08T03:04:47;9.10;;;7.87;;
8058;SDS011;4072;42.668;23.396;2023-09-08T03:07:16;9.10;;;7.03;;
8058;SDS011;4072;42.668;23.396;2023-09-08T03:09:45;8.73;;;7.83;;
8058;SDS011;4072;42.668;23.396;2023-09-08T03:12:13;11.40;;;7.73;;
8058;SDS011;4072;42.668;23.396;2023-09-08T03:14:41;10.70;;;7.73;;
8058;SDS011;4072;42.668;23.396;2023-09-08T03:17:10;10.40;;;8.17;;
8058;SDS011;4072;42.668;23.396;2023-09-08T03:19:44;9.77;;;8.77;;
8058;SDS011;4072;42.668;23.396;2023-09-08T03:22:17;9.30;;;8.40;;
8058;SDS011;4072;42.668;23.396;2023-09-08T03:24:45;8.53;;;7.73;;
8058;SDS011;4072;42.668;23.396;2023-09-08T03:27:13;9.97;;;8.10;;
8058;SDS011;4072;42.668;23.396;2023-09-08T03:29:43;11.07;;;8.70;;
8058;SDS011;4072;42.668;23.396;2023-09-08T03:32:14;12.13;;;8.50;;
8058;SDS011;4072;42.668;23.396;2023-09-08T03:34:43;8.83;;;8.03;;
8058;SDS011;4072;42.668;23.396;2023-09-08T03:37:11;11.20;;;8.33;;
8058;SDS011;4072;42.668;23.396;2023-09-08T03:39:41;10.20;;;8.17;;
8058;SDS011;4072;42.668;23.396;2023-09-08T03:42:09;10.20;;;9.10;;
8058;SDS011;4072;42.668;23.396;2023-09-08T03:44:37;9.47;;;8.57;;
8058;SDS011;4072;42.668;23.396;2023-09-08T03:47:05;9.43;;;8.23;;
8058;SDS011;4072;42.668;23.396;2023-09-08T03:49:33;10.47;;;8.87;;
8058;SDS011;4072;42.668;23.396;2023-09-08T03:52:02;9.17;;;8.27;;
8058;SDS011;4072;42.668;23.396;2023-09-08T03:54:30;9.70;;;8.57;;
8058;SDS011;4072;42.668;23.396;2023-09-08T03:57:00;9.93;;;8.87;;
8058;SDS011;4072;42.668;23.396;2023-09-08T03:59:28;11.13;;;9.87;;
8058;SDS011;4072;42.668;23.396;2023-09-08T04:01:56;9.67;;;8.63;;
8058;SDS011;4072;42.668;23.396;2023-09-08T04:04:29;11.67;;;8.70;;
8058;SDS011;4072;42.668;23.396;2023-09-08T04:06:58;10.60;;;8.60;;
8058;SDS011;4072;42.668;23.396;2023-09-08T04:09:26;9.03;;;8.10;;
8058;SDS011;4072;42.668;23.396;2023-09-08T04:11:55;8.33;;;7.43;;
8058;SDS011;4072;42.668;23.396;2023-09-08T04:14:24;10.80;;;9.23;;
8058;SDS011;4072;42.668;23.396;2023-09-08T04:16:55;9.63;;;8.13;;
8058;SDS011;4072;42.668;23.396;2023-09-08T04:19:23;9.43;;;8.03;;
8058;SDS011;4072;42.668;23.396;2023-09-08T04:21:52;11.40;;;7.37;;
8058;SDS011;4072;42.668;23.396;2023-09-08T04:24:20;8.97;;;7.70;;
8058;SDS011;4072;42.668;23.396;2023-09-08T04:26:49;11.00;;;8.33;;
8058;SDS011;4072;42.668;23.396;2023-09-08T04:29:18;9.43;;;8.07;;
8058;SDS011;4072;42.668;23.396;2023-09-08T04:31:47;9.37;;;8.20;;
8058;SDS011;4072;42.668;23.396;2023-09-08T04:34:16;11.37;;;8.13;;
8058;SDS011;4072;42.668;23.396;2023-09-08T04:36:45;11.87;;;7.83;;
8058;SDS011;4072;42.668;23.396;2023-09-08T04:39:13;10.53;;;7.80;;
8058;SDS011;4072;42.668;23.396;2023-09-08T04:41:42;13.03;;;7.57;;
8058;SDS011;4072;42.668;23.396;2023-09-08T04:44:10;7.50;;;6.33;;
8058;SDS011;4072;42.668;23.396;2023-09-08T04:46:38;7.40;;;6.53;;
8058;SDS011;4072;42.668;23.396;2023-09-08T04:49:08;7.03;;;6.33;;
8058;SDS011;4072;42.668;23.396;2023-09-08T04:51:37;9.30;;;7.40;;
8058;SDS011;4072;42.668;23.396;2023-09-08T04:54:05;6.80;;;6.17;;
8058;SDS011;4072;42.668;23.396;2023-09-08T04:56:33;8.30;;;5.97;;
8058;SDS011;4072;42.668;23.396;2023-09-08T04:59:01;7.43;;;6.73;;
8058;SDS011;4072;42.668;23.396;2023-09-08T05:01:29;8.30;;;6.47;;
8058;SDS011;4072;42.668;23.396;2023-09-08T05:04:03;8.47;;;6.50;;
8058;SDS011;4072;42.668;23.396;2023-09-08T05:06:33;6.80;;;5.87;;
8058;SDS011;4072;42.668;23.396;2023-09-08T05:09:01;10.50;;;6.07;;
8058;SDS011;4072;42.668;23.396;2023-09-08T05:11:30;10.53;;;5.87;;
8058;SDS011;4072;42.668;23.396;2023-09-08T05:13:58;13.87;;;5.70;;
8058;SDS011;4072;42.668;23.396;2023-09-08T05:16:27;11.03;;;5.80;;
8058;SDS011;4072;42.668;23.396;2023-09-08T05:19:06;11.90;;;6.33;;
8058;SDS011;4072;42.668;23.396;2023-09-08T05:21:37;9.70;;;6.37;;
8058;SDS011;4072;42.668;23.396;2023-09-08T05:24:05;9.33;;;5.93;;
8058;SDS011;4072;42.668;23.396;2023-09-08T05:26:36;8.47;;;6.83;;
8058;SDS011;4072;42.668;23.396;2023-09-08T05:29:05;5.53;;;5.03;;
8058;SDS011;4072;42.668;23.396;2023-09-08T05:31:33;10.07;;;6.20;;
8058;SDS011;4072;42.668;23.396;2023-09-08T05:34:02;10.50;;;6.60;;
8058;SDS011;4072;42.668;23.396;2023-09-08T05:36:30;8.83;;;6.27;;
8058;SDS011;4072;42.668;23.396;2023-09-08T05:39:04;13.20;;;6.03;;
8058;SDS011;4072;42.668;23.396;2023-09-08T05:41:33;7.03;;;5.87;;
8058;SDS011;4072;42.668;23.396;2023-09-08T05:44:01;6.93;;;5.67;;
8058;SDS011;4072;42.668;23.396;2023-09-08T05:46:30;12.37;;;5.90;;
8058;SDS011;4072;42.668;23.396;2023-09-08T05:48:59;10.83;;;5.97;;
8058;SDS011;4072;42.668;23.396;2023-09-08T05:51:27;8.47;;;5.40;;
8058;SDS011;4072;42.668;23.396;2023-09-08T05:53:56;6.00;;;5.27;;
8058;SDS011;4072;42.668;23.396;2023-09-08T05:56:29;9.80;;;5.63;;
8058;SDS011;4072;42.668;23.396;2023-09-08T05:58:58;7.23;;;5.53;;
8058;SDS011;4072;42.668;23.396;2023-09-08T06:01:28;13.83;;;5.67;;
8058;SDS011;4072;42.668;23.396;2023-09-08T06:03:59;7.00;;;5.17;;
8058;SDS011;4072;42.668;23.396;2023-09-08T06:06:28;8.20;;;4.93;;
8058;SDS011;4072;42.668;23.396;2023-09-08T06:08:56;9.27;;;5.43;;
8058;SDS011;4072;42.668;23.396;2023-09-08T06:11:24;5.30;;;4.50;;
8058;SDS011;4072;42.668;23.396;2023-09-08T06:13:55;6.17;;;4.60;;
8058;SDS011;4072;42.668;23.396;2023-09-08T06:16:25;5.88;;;4.20;;
8058;SDS011;4072;42.668;23.396;2023-09-08T06:18:54;6.77;;;4.03;;
8058;SDS011;4072;42.668;23.396;2023-09-08T06:21:22;4.45;;;4.05;;
8058;SDS011;4072;42.668;23.396;2023-09-08T06:23:50;5.18;;;4.20;;
8058;SDS011;4072;42.668;23.396;2023-09-08T06:26:18;6.10;;;4.10;;
8058;SDS011;4072;42.668;23.396;2023-09-08T06:28:46;8.97;;;4.27;;
8058;SDS011;4072;42.668;23.396;2023-09-08T06:31:18;6.43;;;4.63;;
8058;SDS011;4072;42.668;23.396;2023-09-08T06:33:47;6.03;;;4.75;;
8058;SDS011;4072;42.668;23.396;2023-09-08T06:36:19;7.25;;;3.90;;
8058;SDS011;4072;42.668;23.396;2023-09-08T06:38:48;5.90;;;3.47;;
8058;SDS011;4072;42.668;23.396;2023-09-08T06:41:16;4.38;;;3.33;;
8058;SDS011;4072;42.668;23.396;2023-09-08T06:43:44;3.95;;;3.55;;
8058;SDS011;4072;42.668;23.396;2023-09-08T06:46:12;4.15;;;3.30;;
8058;SDS011;4072;42.668;23.396;2023-09-08T06:48:44;4.20;;;3.50;;
8058;SDS011;4072;42.668;23.396;2023-09-08T06:51:13;4.00;;;3.67;;
8058;SDS011;4072;42.668;23.396;2023-09-08T06:53:42;4.45;;;3.38;;
8058;SDS011;4072;42.668;23.396;2023-09-08T06:56:12;5.78;;;3.30;;
8058;SDS011;4072;42.668;23.396;2023-09-08T06:58:40;9.60;;;3.70;;
8058;SDS011;4072;42.668;23.396;2023-09-08T07:01:10;7.93;;;3.40;;
8058;SDS011;4072;42.668;23.396;2023-09-08T07:03:39;4.50;;;3.08;;
8058;SDS011;4072;42.668;23.396;2023-09-08T07:06:09;3.50;;;3.10;;
8058;SDS011;4072;42.668;23.396;2023-09-08T07:08:38;6.70;;;3.53;;
8058;SDS011;4072;42.668;23.396;2023-09-08T07:11:06;4.78;;;2.97;;
8058;SDS011;4072;42.668;23.396;2023-09-08T07:13:35;4.82;;;3.53;;
8058;SDS011;4072;42.668;23.396;2023-09-08T07:16:03;3.15;;;2.85;;
8058;SDS011;4072;42.668;23.396;2023-09-08T07:18:32;5.78;;;3.15;;
8058;SDS011;4072;42.668;23.396;2023-09-08T07:21:03;5.47;;;3.45;;
8058;SDS011;4072;42.668;23.396;2023-09-08T07:23:34;4.95;;;3.38;;
8058;SDS011;4072;42.668;23.396;2023-09-08T07:26:04;5.68;;;3.60;;
8058;SDS011;4072;42.668;23.396;2023-09-08T07:28:32;3.65;;;2.70;;
8058;SDS011;4072;42.668;23.396;2023-09-08T07:31:01;3.67;;;3.08;;
8058;SDS011;4072;42.668;23.396;2023-09-08T07:33:32;3.20;;;2.92;;
8058;SDS011;4072;42.668;23.396;2023-09-08T07:36:03;4.00;;;3.15;;
8058;SDS011;4072;42.668;23.396;2023-09-08T07:38:34;4.65;;;3.45;;
8058;SDS011;4072;42.668;23.396;2023-09-08T07:41:03;7.00;;;3.10;;
8058;SDS011;4072;42.668;23.396;2023-09-08T07:43:31;3.88;;;3.40;;
8058;SDS011;4072;42.668;23.396;2023-09-08T07:45:59;3.30;;;3.00;;
8058;SDS011;4072;42.668;23.396;2023-09-08T07:48:27;6.57;;;3.20;;
8058;SDS011;4072;42.668;23.396;2023-09-08T07:50:56;4.25;;;3.03;;
8058;SDS011;4072;42.668;23.396;2023-09-08T07:53:26;3.70;;;3.20;;
8058;SDS011;4072;42.668;23.396;2023-09-08T07:55:56;4.03;;;3.13;;
8058;SDS011;4072;42.668;23.396;2023-09-08T07:58:24;6.60;;;4.07;;
8058;SDS011;4072;42.668;23.396;2023-09-08T08:00:56;3.33;;;3.03;;
8058;SDS011;4072;42.668;23.396;2023-09-08T08:03:24;4.15;;;3.75;;
8058;SDS011;4072;42.668;23.396;2023-09-08T08:05:52;4.00;;;3.60;;
8058;SDS011;4072;42.668;23.396;2023-09-08T08:08:21;8.52;;;3.47;;
8058;SDS011;4072;42.668;23.396;2023-09-08T08:10:49;23.23;;;6.20;;
8058;SDS011;4072;42.668;23.396;2023-09-08T08:13:19;4.57;;;3.35;;
8058;SDS011;4072;42.668;23.396;2023-09-08T08:15:47;4.85;;;4.38;;
8058;SDS011;4072;42.668;23.396;2023-09-08T08:18:16;4.40;;;4.00;;
8058;SDS011;4072;42.668;23.396;2023-09-08T08:20:44;4.97;;;3.58;;
8058;SDS011;4072;42.668;23.396;2023-09-08T08:23:13;6.15;;;3.78;;
8058;SDS011;4072;42.668;23.396;2023-09-08T08:25:41;3.38;;;3.08;;
8058;SDS011;4072;42.668;23.396;2023-09-08T08:28:09;4.97;;;3.20;;
8058;SDS011;4072;42.668;23.396;2023-09-08T08:30:39;3.55;;;3.25;;
8058;SDS011;4072;42.668;23.396;2023-09-08T08:33:08;6.07;;;3.35;;
8058;SDS011;4072;42.668;23.396;2023-09-08T08:35:37;4.85;;;3.10;;
8058;SDS011;4072;42.668;23.396;2023-09-08T08:38:07;4.75;;;3.30;;
8058;SDS011;4072;42.668;23.396;2023-09-08T08:40:37;3.50;;;2.88;;
8058;SDS011;4072;42.668;23.396;2023-09-08T08:43:06;3.65;;;3.35;;
8058;SDS011;4072;42.668;23.396;2023-09-08T08:45:35;3.40;;;3.10;;
8058;SDS011;4072;42.668;23.396;2023-09-08T08:48:07;4.30;;;2.63;;
8058;SDS011;4072;42.668;23.396;2023-09-08T08:50:36;4.70;;;3.33;;
8058;SDS011;4072;42.668;23.396;2023-09-08T08:53:06;3.88;;;3.30;;
8058;SDS011;4072;42.668;23.396;2023-09-08T08:55:37;5.38;;;3.80;;
8058;SDS011;4072;42.668;23.396;2023-09-08T08:58:06;5.30;;;2.85;;
8058;SDS011;4072;42.668;23.396;2023-09-08T09:00:34;3.72;;;2.80;;
8058;SDS011;4072;42.668;23.396;2023-09-08T09:03:04;4.80;;;3.60;;
8058;SDS011;4072;42.668;23.396;2023-09-08T09:05:41;8.18;;;3.10;;
8058;SDS011;4072;42.668;23.396;2023-09-08T09:08:14;5.03;;;3.40;;
8058;SDS011;4072;42.668;23.396;2023-09-08T09:10:45;3.00;;;2.70;;
8058;SDS011;4072;42.668;23.396;2023-09-08T09:13:13;4.05;;;3.40;;
8058;SDS011;4072;42.668;23.396;2023-09-08T09:15:43;3.45;;;3.15;;
8058;SDS011;4072;42.668;23.396;2023-09-08T09:18:15;4.22;;;3.40;;
8058;SDS011;4072;42.668;23.396;2023-09-08T09:20:52;3.60;;;3.30;;
8058;SDS011;4072;42.668;23.396;2023-09-08T09:23:28;3.97;;;3.05;;
8058;SDS011;4072;42.668;23.396;2023-09-08T09:25:57;4.28;;;3.10;;
8058;SDS011;4072;42.668;23.396;2023-09-08T09:28:28;4.43;;;3.38;;
8058;SDS011;4072;42.668;23.396;2023-09-08T09:30:57;6.85;;;3.45;;
8058;SDS011;4072;42.668;23.396;2023-09-08T09:33:27;3.15;;;2.85;;
8058;SDS011;4072;42.668;23.396;2023-09-08T09:35:57;3.72;;;3.22;;
8058;SDS011;4072;42.668;23.396;2023-09-08T09:38:28;2.88;;;2.67;;
8058;SDS011;4072;42.668;23.396;2023-09-08T09:40:58;4.40;;;3.90;;
8058;SDS011;4072;42.668;23.396;2023-09-08T09:43:27;5.95;;;3.60;;
8058;SDS011;4072;42.668;23.396;2023-09-08T09:45:56;3.70;;;3.35;;
8058;SDS011;4072;42.668;23.396;2023-09-08T09:48:24;5.65;;;3.60;;
8058;SDS011;4072;42.668;23.396;2023-09-08T09:50:55;5.20;;;3.80;;
8058;SDS011;4072;42.668;23.396;2023-09-08T09:53:24;4.00;;;3.67;;
8058;SDS011;4072;42.668;23.396;2023-09-08T09:55:52;4.10;;;3.53;;
8058;SDS011;4072;42.668;23.396;2023-09-08T09:58:21;3.67;;;3.38;;
8058;SDS011;4072;42.668;23.396;2023-09-08T10:00:52;6.20;;;3.67;;
8058;SDS011;4072;42.668;23.396;2023-09-08T10:03:21;4.10;;;3.30;;
8058;SDS011;4072;42.668;23.396;2023-09-08T10:05:52;3.70;;;3.40;;
8058;SDS011;4072;42.668;23.396;2023-09-08T10:08:22;8.02;;;5.15;;
8058;SDS011;4072;42.668;23.396;2023-09-08T10:10:51;3.95;;;3.25;;
8058;SDS011;4072;42.668;23.396;2023-09-08T10:13:27;3.67;;;3.38;;
8058;SDS011;4072;42.668;23.396;2023-09-08T10:15:59;3.55;;;3.25;;
8058;SDS011;4072;42.668;23.396;2023-09-08T10:18:29;5.20;;;3.05;;
8058;SDS011;4072;42.668;23.396;2023-09-08T10:21:04;4.07;;;3.35;;
8058;SDS011;4072;42.668;23.396;2023-09-08T10:23:34;5.72;;;3.35;;
8058;SDS011;4072;42.668;23.396;2023-09-08T10:26:06;3.70;;;3.20;;
8058;SDS011;4072;42.668;23.396;2023-09-08T10:28:37;4.15;;;3.25;;
8058;SDS011;4072;42.668;23.396;2023-09-08T10:31:06;5.43;;;3.65;;
8058;SDS011;4072;42.668;23.396;2023-09-08T10:33:40;6.68;;;4.20;;
8058;SDS011;4072;42.668;23.396;2023-09-08T10:36:10;6.43;;;3.33;;
8058;SDS011;4072;42.668;23.396;2023-09-08T10:38:39;7.20;;;3.85;;
8058;SDS011;4072;42.668;23.396;2023-09-08T10:41:27;5.32;;;4.55;;
8058;SDS011;4072;42.668;23.396;2023-09-08T10:44:01;7.45;;;4.03;;
8058;SDS011;4072;42.668;23.396;2023-09-08T10:46:31;6.45;;;3.63;;
8058;SDS011;4072;42.668;23.396;2023-09-08T10:49:02;5.80;;;3.30;;
8058;SDS011;4072;42.668;23.396;2023-09-08T10:51:35;4.65;;;3.55;;
8058;SDS011;4072;42.668;23.396;2023-09-08T10:54:04;3.65;;;3.30;;
8058;SDS011;4072;42.668;23.396;2023-09-08T10:56:49;6.85;;;3.17;;
8058;SDS011;4072;42.668;23.396;2023-09-08T10:59:23;8.18;;;3.58;;
8058;SDS011;4072;42.668;23.396;2023-09-08T11:01:56;7.88;;;3.78;;
8058;SDS011;4072;42.668;23.396;2023-09-08T11:04:24;5.30;;;3.80;;
8058;SDS011;4072;42.668;23.396;2023-09-08T11:06:57;3.92;;;3.10;;
8058;SDS011;4072;42.668;23.396;2023-09-08T11:09:29;6.95;;;3.70;;
8058;SDS011;4072;42.668;23.396;2023-09-08T11:12:03;6.13;;;3.70;;
8058;SDS011;4072;42.668;23.396;2023-09-08T11:14:34;5.32;;;3.13;;
8058;SDS011;4072;42.668;23.396;2023-09-08T11:17:02;4.05;;;3.35;;
8058;SDS011;4072;42.668;23.396;2023-09-08T11:19:42;5.60;;;3.17;;
8058;SDS011;4072;42.668;23.396;2023-09-08T11:22:12;4.60;;;3.58;;
8058;SDS011;4072;42.668;23.396;2023-09-08T11:24:41;3.95;;;3.10;;
8058;SDS011;4072;42.668;23.396;2023-09-08T11:27:11;7.13;;;3.60;;
8058;SDS011;4072;42.668;23.396;2023-09-08T11:29:40;5.13;;;3.45;;
8058;SDS011;4072;42.668;23.396;2023-09-08T11:32:08;3.88;;;3.38;;
8058;SDS011;4072;42.668;23.396;2023-09-08T11:34:37;3.83;;;3.40;;
8058;SDS011;4072;42.668;23.396;2023-09-08T11:37:08;4.45;;;3.80;;
8058;SDS011;4072;42.668;23.396;2023-09-08T11:39:39;4.13;;;3.28;;
8058;SDS011;4072;42.668;23.396;2023-09-08T11:42:08;4.57;;;3.60;;
8058;SDS011;4072;42.668;23.396;2023-09-08T11:44:39;6.55;;;3.17;;
8058;SDS011;4072;42.668;23.396;2023-09-08T11:47:08;5.72;;;3.95;;
8058;SDS011;4072;42.668;23.396;2023-09-08T11:49:38;6.97;;;3.55;;
8058;SDS011;4072;42.668;23.396;2023-09-08T11:52:07;5.07;;;3.58;;
8058;SDS011;4072;42.668;23.396;2023-09-08T11:54:36;5.60;;;4.18;;
8058;SDS011;4072;42.668;23.396;2023-09-08T11:57:23;5.53;;;3.78;;
8058;SDS011;4072;42.668;23.396;2023-09-08T11:59:51;4.18;;;3.70;;
8058;SDS011;4072;42.668;23.396;2023-09-08T12:02:20;4.97;;;4.07;;
8058;SDS011;4072;42.668;23.396;2023-09-08T12:04:48;3.78;;;3.47;;
8058;SDS011;4072;42.668;23.396;2023-09-08T12:07:20;5.88;;;3.60;;
8058;SDS011;4072;42.668;23.396;2023-09-08T12:09:48;6.35;;;3.40;;
8058;SDS011;4072;42.668;23.396;2023-09-08T12:12:16;8.43;;;3.35;;
8058;SDS011;4072;42.668;23.396;2023-09-08T12:14:46;5.65;;;3.50;;
8058;SDS011;4072;42.668;23.396;2023-09-08T12:17:14;3.47;;;3.17;;
8058;SDS011;4072;42.668;23.396;2023-09-08T12:19:44;6.15;;;3.65;;
8058;SDS011;4072;42.668;23.396;2023-09-08T12:22:12;3.42;;;3.13;;
8058;SDS011;4072;42.668;23.396;2023-09-08T12:24:55;4.72;;;3.60;;
8058;SDS011;4072;42.668;23.396;2023-09-08T12:27:26;3.83;;;3.53;;
8058;SDS011;4072;42.668;23.396;2023-09-08T12:29:56;4.28;;;3.45;;
8058;SDS011;4072;42.668;23.396;2023-09-08T12:32:28;3.72;;;3.22;;
8058;SDS011;4072;42.668;23.396;2023-09-08T12:34:59;4.68;;;3.42;;
8058;SDS011;4072;42.668;23.396;2023-09-08T12:37:32;5.40;;;3.55;;
8058;SDS011;4072;42.668;23.396;2023-09-08T12:40:01;6.18;;;3.60;;
8058;SDS011;4072;42.668;23.396;2023-09-08T12:42:30;4.53;;;3.67;;
8058;SDS011;4072;42.668;23.396;2023-09-08T12:45:04;3.58;;;3.17;;
8058;SDS011;4072;42.668;23.396;2023-09-08T12:47:33;6.10;;;3.85;;
8058;SDS011;4072;42.668;23.396;2023-09-08T12:50:02;4.55;;;3.40;;
8058;SDS011;4072;42.668;23.396;2023-09-08T12:52:31;7.30;;;3.78;;
8058;SDS011;4072;42.668;23.396;2023-09-08T12:54:59;4.82;;;3.50;;
8058;SDS011;4072;42.668;23.396;2023-09-08T12:57:28;4.68;;;3.65;;
8058;SDS011;4072;42.668;23.396;2023-09-08T12:59:57;4.53;;;3.88;;
8058;SDS011;4072;42.668;23.396;2023-09-08T13:02:27;3.95;;;3.63;;
8058;SDS011;4072;42.668;23.396;2023-09-08T13:04:56;8.15;;;3.88;;
8058;SDS011;4072;42.668;23.396;2023-09-08T13:07:25;6.15;;;3.53;;
8058;SDS011;4072;42.668;23.396;2023-09-08T13:09:53;5.55;;;3.63;;
8058;SDS011;4072;42.668;23.396;2023-09-08T13:12:22;4.18;;;3.72;;
8058;SDS011;4072;42.668;23.396;2023-09-08T13:14:50;6.78;;;3.88;;
8058;SDS011;4072;42.668;23.396;2023-09-08T13:17:19;7.10;;;3.92;;
8058;SDS011;4072;42.668;23.396;2023-09-08T13:19:48;5.03;;;4.43;;
8058;SDS011;4072;42.668;23.396;2023-09-08T13:22:17;5.22;;;3.28;;
8058;SDS011;4072;42.668;23.396;2023-09-08T13:24:45;4.35;;;3.53;;
8058;SDS011;4072;42.668;23.396;2023-09-08T13:27:13;4.15;;;3.72;;
8058;SDS011;4072;42.668;23.396;2023-09-08T13:29:44;4.20;;;3.50;;
8058;SDS011;4072;42.668;23.396;2023-09-08T13:32:13;4.13;;;3.72;;
8058;SDS011;4072;42.668;23.396;2023-09-08T13:34:42;5.53;;;3.10;;
8058;SDS011;4072;42.668;23.396;2023-09-08T13:37:12;5.70;;;3.72;;
8058;SDS011;4072;42.668;23.396;2023-09-08T13:39:41;5.75;;;3.78;;
8058;SDS011;4072;42.668;23.396;2023-09-08T13:42:10;5.90;;;3.40;;
8058;SDS011;4072;42.668;23.396;2023-09-08T13:44:38;5.07;;;3.28;;
8058;SDS011;4072;42.668;23.396;2023-09-08T13:47:07;4.22;;;3.83;;
8058;SDS011;4072;42.668;23.396;2023-09-08T13:49:35;3.88;;;3.47;;
8058;SDS011;4072;42.668;23.396;2023-09-08T13:52:04;6.43;;;3.85;;
8058;SDS011;4072;42.668;23.396;2023-09-08T13:54:35;6.03;;;3.65;;
8058;SDS011;4072;42.668;23.396;2023-09-08T13:57:05;3.42;;;3.13;;
8058;SDS011;4072;42.668;23.396;2023-09-08T13:59:34;4.00;;;3.40;;
8058;SDS011;4072;42.668;23.396;2023-09-08T14:02:05;4.47;;;4.07;;
8058;SDS011;4072;42.668;23.396;2023-09-08T14:04:38;5.70;;;4.28;;
8058;SDS011;4072;42.668;23.396;2023-09-08T14:07:14;4.63;;;3.47;;
8058;SDS011;4072;42.668;23.396;2023-09-08T14:09:52;5.38;;;3.88;;
8058;SDS011;4072;42.668;23.396;2023-09-08T14:12:31;4.20;;;3.80;;
8058;SDS011;4072;42.668;23.396;2023-09-08T14:15:01;3.95;;;3.40;;
8058;SDS011;4072;42.668;23.396;2023-09-08T14:17:30;5.22;;;4.18;;
8058;SDS011;4072;42.668;23.396;2023-09-08T14:19:58;4.43;;;3.67;;
8058;SDS011;4072;42.668;23.396;2023-09-08T14:22:26;7.47;;;3.60;;
8058;SDS011;4072;42.668;23.396;2023-09-08T14:24:56;4.03;;;3.25;;
8058;SDS011;4072;42.668;23.396;2023-09-08T14:27:24;4.82;;;3.38;;
8058;SDS011;4072;42.668;23.396;2023-09-08T14:29:52;5.65;;;3.13;;
8058;SDS011;4072;42.668;23.396;2023-09-08T14:32:21;4.40;;;3.90;;
8058;SDS011;4072;42.668;23.396;2023-09-08T14:34:49;5.80;;;3.67;;
8058;SDS011;4072;42.668;23.396;2023-09-08T14:37:18;4.20;;;3.80;;
8058;SDS011;4072;42.668;23.396;2023-09-08T14:39:46;3.97;;;3.58;;
8058;SDS011;4072;42.668;23.396;2023-09-08T14:42:16;4.90;;;4.40;;
8058;SDS011;4072;42.668;23.396;2023-09-08T14:44:44;3.58;;;3.28;;
8058;SDS011;4072;42.668;23.396;2023-09-08T14:47:13;4.40;;;4.00;;
8058;SDS011;4072;42.668;23.396;2023-09-08T14:49:41;8.00;;;4.10;;
8058;SDS011;4072;42.668;23.396;2023-09-08T14:52:10;4.97;;;3.38;;
8058;SDS011;4072;42.668;23.396;2023-09-08T14:54:38;5.05;;;3.97;;
8058;SDS011;4072;42.668;23.396;2023-09-08T14:57:06;5.18;;;4.05;;
8058;SDS011;4072;42.668;23.396;2023-09-08T14:59:35;4.53;;;3.50;;
8058;SDS011;4072;42.668;23.396;2023-09-08T15:02:04;5.70;;;3.90;;
8058;SDS011;4072;42.668;23.396;2023-09-08T15:04:32;3.88;;;3.35;;
8058;SDS011;4072;42.668;23.396;2023-09-08T15:07:00;10.30;;;3.65;;
8058;SDS011;4072;42.668;23.396;2023-09-08T15:09:28;5.82;;;3.65;;
8058;SDS011;4072;42.668;23.396;2023-09-08T15:11:57;4.97;;;3.80;;
8058;SDS011;4072;42.668;23.396;2023-09-08T15:14:25;5.90;;;4.03;;